sensor_id;sensor_type;location;lat;lon;timestamp;temperature;humidity
56725;DHT22;42608;52.776;6.968;2023-11-19T00:01:36;10.50;99.90
56725;DHT22;42608;52.776;6.968;2023-11-19T00:04:02;10.50;99.90
56725;DHT22;42608;52.776;6.968;2023-11-19T00:06:30;10.60;99.90
56725;DHT22;42608;52.776;6.968;2023-11-19T00:08:55;10.60;99.90
56725;DHT22;42608;52.776;6.968;2023-11-19T00:11:21;10.60;99.90
56725;DHT22;42608;52.776;6.968;2023-11-19T00:13:49;10.70;99.90
56725;DHT22;42608;52.776;6.968;2023-11-19T00:16:15;10.60;99.90
56725;DHT22;42608;52.776;6.968;2023-11-19T00:18:41;10.70;99.90
56725;DHT22;42608;52.776;6.968;2023-11-19T00:21:07;10.70;99.90
56725;DHT22;42608;52.776;6.968;2023-11-19T00:23:33;10.70;99.90
56725;DHT22;42608;52.776;6.968;2023-11-19T00:25:59;10.70;99.90
56725;DHT22;42608;52.776;6.968;2023-11-19T00:28:24;10.80;99.90
56725;DHT22;42608;52.776;6.968;2023-11-19T00:30:50;10.80;99.90
56725;DHT22;42608;52.776;6.968;2023-11-19T00:33:16;10.80;99.90
56725;DHT22;42608;52.776;6.968;2023-11-19T00:35:41;10.80;99.90
56725;DHT22;42608;52.776;6.968;2023-11-19T00:38:07;10.90;99.90
56725;DHT22;42608;52.776;6.968;2023-11-19T00:40:32;10.90;99.90
56725;DHT22;42608;52.776;6.968;2023-11-19T00:42:58;10.90;99.90
56725;DHT22;42608;52.776;6.968;2023-11-19T00:45:23;10.90;99.90
56725;DHT22;42608;52.776;6.968;2023-11-19T00:47:49;10.90;99.90
56725;DHT22;42608;52.776;6.968;2023-11-19T00:50:15;11.00;99.90
56725;DHT22;42608;52.776;6.968;2023-11-19T00:52:41;11.00;99.90
56725;DHT22;42608;52.776;6.968;2023-11-19T00:55:06;11.00;99.90
56725;DHT22;42608;52.776;6.968;2023-11-19T00:57:32;11.00;99.90
56725;DHT22;42608;52.776;6.968;2023-11-19T00:59:58;11.00;99.90
56725;DHT22;42608;52.776;6.968;2023-11-19T01:02:24;11.10;99.90
56725;DHT22;42608;52.776;6.968;2023-11-19T01:04:49;11.10;99.90
56725;DHT22;42608;52.776;6.968;2023-11-19T01:07:15;11.10;99.90
56725;DHT22;42608;52.776;6.968;2023-11-19T01:09:41;11.20;99.90
56725;DHT22;42608;52.776;6.968;2023-11-19T01:12:07;11.20;99.90
56725;DHT22;42608;52.776;6.968;2023-11-19T01:14:34;11.20;99.90
56725;DHT22;42608;52.776;6.968;2023-11-19T01:17:00;11.20;99.90
56725;DHT22;42608;52.776;6.968;2023-11-19T01:19:26;11.30;99.90
56725;DHT22;42608;52.776;6.968;2023-11-19T01:21:51;11.30;99.90
56725;DHT22;42608;52.776;6.968;2023-11-19T01:24:17;11.30;99.90
56725;DHT22;42608;52.776;6.968;2023-11-19T01:26:43;11.40;99.90
56725;DHT22;42608;52.776;6.968;2023-11-19T01:29:15;11.40;99.90
56725;DHT22;42608;52.776;6.968;2023-11-19T01:31:41;11.40;99.90
56725;DHT22;42608;52.776;6.968;2023-11-19T01:34:07;11.40;99.90
56725;DHT22;42608;52.776;6.968;2023-11-19T01:36:32;11.40;99.90
56725;DHT22;42608;52.776;6.968;2023-11-19T01:38:58;11.40;99.90
56725;DHT22;42608;52.776;6.968;2023-11-19T01:41:23;11.30;99.90
56725;DHT22;42608;52.776;6.968;2023-11-19T01:43:50;11.40;99.90
56725;DHT22;42608;52.776;6.968;2023-11-19T01:46:15;11.40;99.90
56725;DHT22;42608;52.776;6.968;2023-11-19T01:48:45;11.40;99.90
56725;DHT22;42608;52.776;6.968;2023-11-19T01:51:11;11.40;99.90
56725;DHT22;42608;52.776;6.968;2023-11-19T01:53:38;11.40;99.90
56725;DHT22;42608;52.776;6.968;2023-11-19T01:56:05;11.40;99.90
56725;DHT22;42608;52.776;6.968;2023-11-19T01:58:35;11.50;99.90
56725;DHT22;42608;52.776;6.968;2023-11-19T02:01:00;11.50;99.90
56725;DHT22;42608;52.776;6.968;2023-11-19T02:03:29;11.40;99.90
56725;DHT22;42608;52.776;6.968;2023-11-19T02:05:56;11.50;99.90
56725;DHT22;42608;52.776;6.968;2023-11-19T02:08:22;11.50;99.90
56725;DHT22;42608;52.776;6.968;2023-11-19T02:10:48;11.50;99.90
56725;DHT22;42608;52.776;6.968;2023-11-19T02:13:13;11.60;99.90
56725;DHT22;42608;52.776;6.968;2023-11-19T02:15:40;11.60;99.90
56725;DHT22;42608;52.776;6.968;2023-11-19T02:18:22;11.60;99.90
56725;DHT22;42608;52.776;6.968;2023-11-19T02:20:49;11.60;99.90
56725;DHT22;42608;52.776;6.968;2023-11-19T02:23:15;11.60;99.90
56725;DHT22;42608;52.776;6.968;2023-11-19T02:25:40;11.60;99.90
56725;DHT22;42608;52.776;6.968;2023-11-19T02:28:06;11.60;99.90
56725;DHT22;42608;52.776;6.968;2023-11-19T02:30:32;11.60;99.90
56725;DHT22;42608;52.776;6.968;2023-11-19T02:32:58;11.70;99.90
56725;DHT22;42608;52.776;6.968;2023-11-19T02:35:26;11.60;99.90
56725;DHT22;42608;52.776;6.968;2023-11-19T02:37:51;11.70;99.90
56725;DHT22;42608;52.776;6.968;2023-11-19T02:40:17;11.70;99.90
56725;DHT22;42608;52.776;6.968;2023-11-19T02:42:43;11.70;99.90
56725;DHT22;42608;52.776;6.968;2023-11-19T02:45:09;11.70;99.90
56725;DHT22;42608;52.776;6.968;2023-11-19T02:47:42;11.70;99.90
56725;DHT22;42608;52.776;6.968;2023-11-19T02:50:09;11.70;99.90
56725;DHT22;42608;52.776;6.968;2023-11-19T02:52:43;11.70;99.90
56725;DHT22;42608;52.776;6.968;2023-11-19T02:55:09;11.70;99.90
56725;DHT22;42608;52.776;6.968;2023-11-19T02:57:35;11.70;99.90
56725;DHT22;42608;52.776;6.968;2023-11-19T03:00:01;11.70;99.90
56725;DHT22;42608;52.776;6.968;2023-11-19T03:02:30;11.80;99.90
56725;DHT22;42608;52.776;6.968;2023-11-19T03:04:59;11.80;99.90
56725;DHT22;42608;52.776;6.968;2023-11-19T03:07:25;11.80;99.90
56725;DHT22;42608;52.776;6.968;2023-11-19T03:09:50;11.80;99.90
56725;DHT22;42608;52.776;6.968;2023-11-19T03:12:16;11.80;99.90
56725;DHT22;42608;52.776;6.968;2023-11-19T03:14:42;11.90;99.90
56725;DHT22;42608;52.776;6.968;2023-11-19T03:17:07;11.90;99.90
56725;DHT22;42608;52.776;6.968;2023-11-19T03:19:35;11.90;99.90
56725;DHT22;42608;52.776;6.968;2023-11-19T03:22:01;11.90;99.90
56725;DHT22;42608;52.776;6.968;2023-11-19T03:24:27;11.90;99.90
56725;DHT22;42608;52.776;6.968;2023-11-19T03:26:52;11.90;99.90
56725;DHT22;42608;52.776;6.968;2023-11-19T03:29:18;12.00;99.90
56725;DHT22;42608;52.776;6.968;2023-11-19T03:31:43;12.00;99.90
56725;DHT22;42608;52.776;6.968;2023-11-19T03:34:10;12.10;99.90
56725;DHT22;42608;52.776;6.968;2023-11-19T03:36:35;12.10;99.90
56725;DHT22;42608;52.776;6.968;2023-11-19T03:39:01;12.20;99.90
56725;DHT22;42608;52.776;6.968;2023-11-19T03:41:28;12.20;99.90
56725;DHT22;42608;52.776;6.968;2023-11-19T03:43:54;12.20;99.90
56725;DHT22;42608;52.776;6.968;2023-11-19T03:46:19;12.20;99.90
56725;DHT22;42608;52.776;6.968;2023-11-19T03:48:48;12.20;99.90
56725;DHT22;42608;52.776;6.968;2023-11-19T03:51:14;12.30;99.90
56725;DHT22;42608;52.776;6.968;2023-11-19T03:53:46;12.20;99.90
56725;DHT22;42608;52.776;6.968;2023-11-19T03:56:12;12.20;99.90
56725;DHT22;42608;52.776;6.968;2023-11-19T03:58:38;12.30;99.90
56725;DHT22;42608;52.776;6.968;2023-11-19T04:01:04;12.20;99.90
56725;DHT22;42608;52.776;6.968;2023-11-19T04:03:30;12.20;99.90
56725;DHT22;42608;52.776;6.968;2023-11-19T04:05:55;12.20;99.90
56725;DHT22;42608;52.776;6.968;2023-11-19T04:08:21;12.20;99.90
56725;DHT22;42608;52.776;6.968;2023-11-19T04:10:47;12.20;99.90
56725;DHT22;42608;52.776;6.968;2023-11-19T04:13:13;12.10;99.90
56725;DHT22;42608;52.776;6.968;2023-11-19T04:15:39;12.10;99.90
56725;DHT22;42608;52.776;6.968;2023-11-19T04:18:04;12.10;99.90
56725;DHT22;42608;52.776;6.968;2023-11-19T04:20:30;12.10;99.90
56725;DHT22;42608;52.776;6.968;2023-11-19T04:22:57;12.10;99.90
56725;DHT22;42608;52.776;6.968;2023-11-19T04:25:22;12.10;99.90
56725;DHT22;42608;52.776;6.968;2023-11-19T04:27:51;12.10;99.90
56725;DHT22;42608;52.776;6.968;2023-11-19T04:30:17;12.00;99.90
56725;DHT22;42608;52.776;6.968;2023-11-19T04:32:43;12.00;99.90
56725;DHT22;42608;52.776;6.968;2023-11-19T04:35:09;12.00;99.90
56725;DHT22;42608;52.776;6.968;2023-11-19T04:37:34;12.00;99.90
56725;DHT22;42608;52.776;6.968;2023-11-19T04:40:00;12.00;99.90
56725;DHT22;42608;52.776;6.968;2023-11-19T04:42:26;11.90;99.90
56725;DHT22;42608;52.776;6.968;2023-11-19T04:44:51;12.00;99.90
56725;DHT22;42608;52.776;6.968;2023-11-19T04:47:17;12.00;99.90
56725;DHT22;42608;52.776;6.968;2023-11-19T04:49:43;12.00;99.90
56725;DHT22;42608;52.776;6.968;2023-11-19T04:52:08;12.00;99.90
56725;DHT22;42608;52.776;6.968;2023-11-19T04:54:34;12.00;99.90
56725;DHT22;42608;52.776;6.968;2023-11-19T04:57:00;12.00;99.90
56725;DHT22;42608;52.776;6.968;2023-11-19T04:59:25;12.10;99.90
56725;DHT22;42608;52.776;6.968;2023-11-19T05:01:52;12.00;99.90
56725;DHT22;42608;52.776;6.968;2023-11-19T05:04:18;12.00;99.90
56725;DHT22;42608;52.776;6.968;2023-11-19T05:06:46;12.00;99.90
56725;DHT22;42608;52.776;6.968;2023-11-19T05:09:12;12.00;99.90
56725;DHT22;42608;52.776;6.968;2023-11-19T05:11:44;12.00;99.90
56725;DHT22;42608;52.776;6.968;2023-11-19T05:14:10;12.00;99.90
56725;DHT22;42608;52.776;6.968;2023-11-19T05:16:35;12.00;99.90
56725;DHT22;42608;52.776;6.968;2023-11-19T05:19:01;12.00;99.90
56725;DHT22;42608;52.776;6.968;2023-11-19T05:21:26;11.90;99.90
56725;DHT22;42608;52.776;6.968;2023-11-19T05:23:52;11.90;99.90
56725;DHT22;42608;52.776;6.968;2023-11-19T05:26:21;11.90;99.90
56725;DHT22;42608;52.776;6.968;2023-11-19T05:28:47;11.90;99.90
56725;DHT22;42608;52.776;6.968;2023-11-19T05:31:13;11.90;99.90
56725;DHT22;42608;52.776;6.968;2023-11-19T05:33:38;11.90;99.90
56725;DHT22;42608;52.776;6.968;2023-11-19T05:36:04;11.90;99.90
56725;DHT22;42608;52.776;6.968;2023-11-19T05:38:30;11.90;99.90
56725;DHT22;42608;52.776;6.968;2023-11-19T05:40:56;11.80;99.90
56725;DHT22;42608;52.776;6.968;2023-11-19T05:43:21;11.90;99.90
56725;DHT22;42608;52.776;6.968;2023-11-19T05:45:47;11.90;99.90
56725;DHT22;42608;52.776;6.968;2023-11-19T05:48:12;11.90;99.90
56725;DHT22;42608;52.776;6.968;2023-11-19T05:50:38;11.90;99.90
56725;DHT22;42608;52.776;6.968;2023-11-19T05:53:04;11.90;99.90
56725;DHT22;42608;52.776;6.968;2023-11-19T05:55:36;11.90;99.90
56725;DHT22;42608;52.776;6.968;2023-11-19T05:58:03;11.80;99.90
56725;DHT22;42608;52.776;6.968;2023-11-19T06:00:29;11.90;99.90
56725;DHT22;42608;52.776;6.968;2023-11-19T06:02:55;11.90;99.90
56725;DHT22;42608;52.776;6.968;2023-11-19T06:05:21;11.80;99.90
56725;DHT22;42608;52.776;6.968;2023-11-19T06:07:47;11.80;99.90
56725;DHT22;42608;52.776;6.968;2023-11-19T06:10:13;11.80;99.90
56725;DHT22;42608;52.776;6.968;2023-11-19T06:12:44;11.80;99.90
56725;DHT22;42608;52.776;6.968;2023-11-19T06:15:11;11.80;99.90
56725;DHT22;42608;52.776;6.968;2023-11-19T06:17:37;11.80;99.90
56725;DHT22;42608;52.776;6.968;2023-11-19T06:20:03;11.80;99.90
56725;DHT22;42608;52.776;6.968;2023-11-19T06:22:30;11.80;99.90
56725;DHT22;42608;52.776;6.968;2023-11-19T06:24:55;11.80;99.90
56725;DHT22;42608;52.776;6.968;2023-11-19T06:27:21;11.80;99.90
56725;DHT22;42608;52.776;6.968;2023-11-19T06:29:50;11.80;99.90
56725;DHT22;42608;52.776;6.968;2023-11-19T06:32:15;11.80;99.90
56725;DHT22;42608;52.776;6.968;2023-11-19T06:34:41;11.80;99.90
56725;DHT22;42608;52.776;6.968;2023-11-19T06:37:07;11.70;99.90
56725;DHT22;42608;52.776;6.968;2023-11-19T06:39:34;11.80;99.90
56725;DHT22;42608;52.776;6.968;2023-11-19T06:42:00;11.80;99.90
56725;DHT22;42608;52.776;6.968;2023-11-19T06:44:26;11.80;99.90
56725;DHT22;42608;52.776;6.968;2023-11-19T06:46:52;11.70;99.90
56725;DHT22;42608;52.776;6.968;2023-11-19T06:49:17;11.70;99.90
56725;DHT22;42608;52.776;6.968;2023-11-19T06:51:43;11.70;99.90
56725;DHT22;42608;52.776;6.968;2023-11-19T06:54:09;11.70;99.90
56725;DHT22;42608;52.776;6.968;2023-11-19T06:56:35;11.70;99.90
56725;DHT22;42608;52.776;6.968;2023-11-19T06:59:00;11.70;99.90
56725;DHT22;42608;52.776;6.968;2023-11-19T07:01:26;11.70;99.90
56725;DHT22;42608;52.776;6.968;2023-11-19T07:03:51;11.60;99.90
56725;DHT22;42608;52.776;6.968;2023-11-19T07:06:17;11.60;99.90
56725;DHT22;42608;52.776;6.968;2023-11-19T07:08:43;11.60;99.90
56725;DHT22;42608;52.776;6.968;2023-11-19T07:11:10;11.60;99.90
56725;DHT22;42608;52.776;6.968;2023-11-19T07:13:37;11.60;99.90
56725;DHT22;42608;52.776;6.968;2023-11-19T07:16:02;11.60;99.90
56725;DHT22;42608;52.776;6.968;2023-11-19T07:18:29;11.60;99.90
56725;DHT22;42608;52.776;6.968;2023-11-19T07:20:54;11.50;99.90
56725;DHT22;42608;52.776;6.968;2023-11-19T07:23:20;11.50;99.90
56725;DHT22;42608;52.776;6.968;2023-11-19T07:25:46;11.40;99.90
56725;DHT22;42608;52.776;6.968;2023-11-19T07:28:13;11.40;99.90
56725;DHT22;42608;52.776;6.968;2023-11-19T07:30:38;11.40;99.90
56725;DHT22;42608;52.776;6.968;2023-11-19T07:33:04;11.40;99.90
56725;DHT22;42608;52.776;6.968;2023-11-19T07:35:30;11.40;99.90
56725;DHT22;42608;52.776;6.968;2023-11-19T07:37:56;11.40;99.90
56725;DHT22;42608;52.776;6.968;2023-11-19T07:40:23;11.40;99.90
56725;DHT22;42608;52.776;6.968;2023-11-19T07:42:48;11.40;99.90
56725;DHT22;42608;52.776;6.968;2023-11-19T07:45:14;11.40;99.90
56725;DHT22;42608;52.776;6.968;2023-11-19T07:47:39;11.40;99.90
56725;DHT22;42608;52.776;6.968;2023-11-19T07:50:05;11.30;99.90
56725;DHT22;42608;52.776;6.968;2023-11-19T07:52:31;11.40;99.90
56725;DHT22;42608;52.776;6.968;2023-11-19T07:54:56;11.40;99.90
56725;DHT22;42608;52.776;6.968;2023-11-19T07:57:22;11.40;99.90
56725;DHT22;42608;52.776;6.968;2023-11-19T07:59:49;11.30;99.90
56725;DHT22;42608;52.776;6.968;2023-11-19T08:02:14;11.40;99.90
56725;DHT22;42608;52.776;6.968;2023-11-19T08:04:40;11.40;99.90
56725;DHT22;42608;52.776;6.968;2023-11-19T08:07:10;11.40;99.90
56725;DHT22;42608;52.776;6.968;2023-11-19T08:09:36;11.40;99.90
56725;DHT22;42608;52.776;6.968;2023-11-19T08:12:03;11.40;99.90
56725;DHT22;42608;52.776;6.968;2023-11-19T08:14:29;11.40;99.90
56725;DHT22;42608;52.776;6.968;2023-11-19T08:16:54;11.40;99.90
56725;DHT22;42608;52.776;6.968;2023-11-19T08:19:20;11.40;99.90
56725;DHT22;42608;52.776;6.968;2023-11-19T08:21:45;11.40;99.90
56725;DHT22;42608;52.776;6.968;2023-11-19T08:24:11;11.50;99.90
56725;DHT22;42608;52.776;6.968;2023-11-19T08:26:36;11.50;99.90
56725;DHT22;42608;52.776;6.968;2023-11-19T08:29:02;11.50;99.90
56725;DHT22;42608;52.776;6.968;2023-11-19T08:31:28;11.50;99.90
56725;DHT22;42608;52.776;6.968;2023-11-19T08:33:54;11.40;99.90
56725;DHT22;42608;52.776;6.968;2023-11-19T08:36:19;11.40;99.90
56725;DHT22;42608;52.776;6.968;2023-11-19T08:38:46;11.40;99.90
56725;DHT22;42608;52.776;6.968;2023-11-19T08:41:11;11.40;99.90
56725;DHT22;42608;52.776;6.968;2023-11-19T08:43:37;11.40;99.90
56725;DHT22;42608;52.776;6.968;2023-11-19T08:46:03;11.40;99.90
56725;DHT22;42608;52.776;6.968;2023-11-19T08:48:29;11.40;99.90
56725;DHT22;42608;52.776;6.968;2023-11-19T08:50:55;11.40;99.90
56725;DHT22;42608;52.776;6.968;2023-11-19T08:53:20;11.40;99.90
56725;DHT22;42608;52.776;6.968;2023-11-19T08:55:46;11.40;99.90
56725;DHT22;42608;52.776;6.968;2023-11-19T08:58:11;11.40;99.90
56725;DHT22;42608;52.776;6.968;2023-11-19T09:00:37;11.40;99.90
56725;DHT22;42608;52.776;6.968;2023-11-19T09:03:03;11.40;99.90
56725;DHT22;42608;52.776;6.968;2023-11-19T09:05:28;11.40;99.90
56725;DHT22;42608;52.776;6.968;2023-11-19T09:07:54;11.40;99.90
56725;DHT22;42608;52.776;6.968;2023-11-19T09:10:20;11.40;99.90
56725;DHT22;42608;52.776;6.968;2023-11-19T09:12:45;11.40;99.90
56725;DHT22;42608;52.776;6.968;2023-11-19T09:15:11;11.30;99.90
56725;DHT22;42608;52.776;6.968;2023-11-19T09:17:36;11.30;99.90
56725;DHT22;42608;52.776;6.968;2023-11-19T09:20:02;11.20;99.90
56725;DHT22;42608;52.776;6.968;2023-11-19T09:22:27;11.30;99.90
56725;DHT22;42608;52.776;6.968;2023-11-19T09:24:53;11.30;99.90
56725;DHT22;42608;52.776;6.968;2023-11-19T09:27:19;11.20;99.90
56725;DHT22;42608;52.776;6.968;2023-11-19T09:29:45;11.20;99.90
56725;DHT22;42608;52.776;6.968;2023-11-19T09:32:12;11.20;99.90
56725;DHT22;42608;52.776;6.968;2023-11-19T09:34:38;11.30;99.90
56725;DHT22;42608;52.776;6.968;2023-11-19T09:37:03;11.30;99.90
56725;DHT22;42608;52.776;6.968;2023-11-19T09:39:29;11.30;99.90
56725;DHT22;42608;52.776;6.968;2023-11-19T09:41:54;11.30;99.90
56725;DHT22;42608;52.776;6.968;2023-11-19T09:44:20;11.30;99.90
56725;DHT22;42608;52.776;6.968;2023-11-19T09:46:46;11.30;99.90
56725;DHT22;42608;52.776;6.968;2023-11-19T09:49:13;11.30;99.90
56725;DHT22;42608;52.776;6.968;2023-11-19T09:51:39;11.40;99.90
56725;DHT22;42608;52.776;6.968;2023-11-19T09:54:05;11.40;99.90
56725;DHT22;42608;52.776;6.968;2023-11-19T09:56:32;11.40;99.90
56725;DHT22;42608;52.776;6.968;2023-11-19T09:58:58;11.40;99.90
56725;DHT22;42608;52.776;6.968;2023-11-19T10:01:24;11.40;99.90
56725;DHT22;42608;52.776;6.968;2023-11-19T10:03:50;11.50;99.90
56725;DHT22;42608;52.776;6.968;2023-11-19T10:06:17;11.50;99.90
56725;DHT22;42608;52.776;6.968;2023-11-19T10:08:44;11.60;99.90
56725;DHT22;42608;52.776;6.968;2023-11-19T10:11:10;11.60;99.90
56725;DHT22;42608;52.776;6.968;2023-11-19T10:13:38;11.60;99.90
56725;DHT22;42608;52.776;6.968;2023-11-19T10:16:08;11.70;99.90
56725;DHT22;42608;52.776;6.968;2023-11-19T10:18:34;11.80;99.90
56725;DHT22;42608;52.776;6.968;2023-11-19T10:21:06;11.80;99.90
56725;DHT22;42608;52.776;6.968;2023-11-19T10:23:53;11.80;99.90
56725;DHT22;42608;52.776;6.968;2023-11-19T10:26:21;11.80;99.90
56725;DHT22;42608;52.776;6.968;2023-11-19T10:28:47;11.80;99.90
56725;DHT22;42608;52.776;6.968;2023-11-19T10:31:13;11.80;99.90
56725;DHT22;42608;52.776;6.968;2023-11-19T10:33:39;11.80;99.90
56725;DHT22;42608;52.776;6.968;2023-11-19T10:36:05;11.80;99.90
56725;DHT22;42608;52.776;6.968;2023-11-19T10:38:31;11.80;99.90
56725;DHT22;42608;52.776;6.968;2023-11-19T10:40:56;11.80;99.90
56725;DHT22;42608;52.776;6.968;2023-11-19T10:43:22;11.80;99.90
56725;DHT22;42608;52.776;6.968;2023-11-19T10:45:48;11.80;99.90
56725;DHT22;42608;52.776;6.968;2023-11-19T10:48:14;11.80;99.90
56725;DHT22;42608;52.776;6.968;2023-11-19T10:50:40;11.80;99.90
56725;DHT22;42608;52.776;6.968;2023-11-19T10:53:09;11.70;99.90
56725;DHT22;42608;52.776;6.968;2023-11-19T10:55:36;11.70;99.90
56725;DHT22;42608;52.776;6.968;2023-11-19T10:58:09;11.70;99.90
56725;DHT22;42608;52.776;6.968;2023-11-19T11:00:39;11.60;99.90
56725;DHT22;42608;52.776;6.968;2023-11-19T11:03:12;11.60;99.90
56725;DHT22;42608;52.776;6.968;2023-11-19T11:05:40;11.60;99.90
56725;DHT22;42608;52.776;6.968;2023-11-19T11:08:09;11.60;99.90
56725;DHT22;42608;52.776;6.968;2023-11-19T11:10:36;11.70;99.90
56725;DHT22;42608;52.776;6.968;2023-11-19T11:13:04;11.70;99.90
56725;DHT22;42608;52.776;6.968;2023-11-19T11:15:30;11.70;99.90
56725;DHT22;42608;52.776;6.968;2023-11-19T11:17:58;11.70;99.90
56725;DHT22;42608;52.776;6.968;2023-11-19T11:20:25;11.70;99.90
56725;DHT22;42608;52.776;6.968;2023-11-19T11:23:03;11.80;99.90
56725;DHT22;42608;52.776;6.968;2023-11-19T11:28:16;11.80;99.90
56725;DHT22;42608;52.776;6.968;2023-11-19T11:30:49;11.90;99.90
56725;DHT22;42608;52.776;6.968;2023-11-19T11:38:36;12.00;99.90
56725;DHT22;42608;52.776;6.968;2023-11-19T11:41:14;12.00;99.90
56725;DHT22;42608;52.776;6.968;2023-11-19T11:43:43;12.00;99.90
56725;DHT22;42608;52.776;6.968;2023-11-19T11:46:09;12.00;99.90
56725;DHT22;42608;52.776;6.968;2023-11-19T11:48:54;12.00;99.90
56725;DHT22;42608;52.776;6.968;2023-11-19T11:52:08;12.00;99.90
56725;DHT22;42608;52.776;6.968;2023-11-19T11:54:25;12.00;99.90
56725;DHT22;42608;52.776;6.968;2023-11-19T12:02:07;12.10;99.90
56725;DHT22;42608;52.776;6.968;2023-11-19T12:04:34;12.00;99.90
56725;DHT22;42608;52.776;6.968;2023-11-19T12:07:06;12.00;99.90
56725;DHT22;42608;52.776;6.968;2023-11-19T12:09:32;12.00;99.90
56725;DHT22;42608;52.776;6.968;2023-11-19T12:15:01;12.00;99.90
56725;DHT22;42608;52.776;6.968;2023-11-19T12:20:07;11.90;99.90
56725;DHT22;42608;52.776;6.968;2023-11-19T12:22:40;11.80;99.90
56725;DHT22;42608;52.776;6.968;2023-11-19T12:25:06;11.80;99.90
56725;DHT22;42608;52.776;6.968;2023-11-19T12:27:33;11.80;99.90
56725;DHT22;42608;52.776;6.968;2023-11-19T12:30:01;11.70;99.90
56725;DHT22;42608;52.776;6.968;2023-11-19T12:32:43;11.70;99.90
56725;DHT22;42608;52.776;6.968;2023-11-19T12:35:09;11.70;99.90
56725;DHT22;42608;52.776;6.968;2023-11-19T12:40:16;11.70;99.90
56725;DHT22;42608;52.776;6.968;2023-11-19T12:42:46;11.70;99.90
56725;DHT22;42608;52.776;6.968;2023-11-19T12:45:12;11.60;99.90
56725;DHT22;42608;52.776;6.968;2023-11-19T12:47:39;11.70;99.90
56725;DHT22;42608;52.776;6.968;2023-11-19T12:50:05;11.70;99.90
56725;DHT22;42608;52.776;6.968;2023-11-19T12:52:35;11.70;99.90
56725;DHT22;42608;52.776;6.968;2023-11-19T12:55:01;11.70;99.90
56725;DHT22;42608;52.776;6.968;2023-11-19T12:57:39;11.70;99.90
56725;DHT22;42608;52.776;6.968;2023-11-19T13:00:06;11.70;99.90
56725;DHT22;42608;52.776;6.968;2023-11-19T13:02:48;11.80;99.90
56725;DHT22;42608;52.776;6.968;2023-11-19T13:08:11;11.80;99.90
56725;DHT22;42608;52.776;6.968;2023-11-19T13:13:16;11.90;99.90
56725;DHT22;42608;52.776;6.968;2023-11-19T13:15:42;11.90;99.90
56725;DHT22;42608;52.776;6.968;2023-11-19T13:18:10;12.00;99.90
56725;DHT22;42608;52.776;6.968;2023-11-19T13:20:36;12.00;99.90
56725;DHT22;42608;52.776;6.968;2023-11-19T13:23:02;12.00;99.90
56725;DHT22;42608;52.776;6.968;2023-11-19T13:25:28;12.00;99.90
56725;DHT22;42608;52.776;6.968;2023-11-19T13:27:54;12.00;99.90
56725;DHT22;42608;52.776;6.968;2023-11-19T13:30:20;11.90;99.90
56725;DHT22;42608;52.776;6.968;2023-11-19T13:32:47;11.90;99.90
56725;DHT22;42608;52.776;6.968;2023-11-19T13:35:13;11.90;99.90
56725;DHT22;42608;52.776;6.968;2023-11-19T13:37:46;11.90;99.90
56725;DHT22;42608;52.776;6.968;2023-11-19T13:40:11;11.90;99.90
56725;DHT22;42608;52.776;6.968;2023-11-19T13:42:41;11.80;99.90
56725;DHT22;42608;52.776;6.968;2023-11-19T13:45:07;11.80;99.90
56725;DHT22;42608;52.776;6.968;2023-11-19T13:47:36;11.80;99.90
56725;DHT22;42608;52.776;6.968;2023-11-19T13:50:01;11.80;99.90
56725;DHT22;42608;52.776;6.968;2023-11-19T13:52:27;11.80;99.90
56725;DHT22;42608;52.776;6.968;2023-11-19T13:54:53;11.80;99.90
56725;DHT22;42608;52.776;6.968;2023-11-19T13:57:18;11.80;99.90
56725;DHT22;42608;52.776;6.968;2023-11-19T13:59:44;11.80;99.90
56725;DHT22;42608;52.776;6.968;2023-11-19T14:02:10;11.80;99.90
56725;DHT22;42608;52.776;6.968;2023-11-19T14:04:36;11.80;99.90
56725;DHT22;42608;52.776;6.968;2023-11-19T14:07:01;11.70;99.90
56725;DHT22;42608;52.776;6.968;2023-11-19T14:09:28;11.70;99.90
56725;DHT22;42608;52.776;6.968;2023-11-19T14:11:54;11.70;99.90
56725;DHT22;42608;52.776;6.968;2023-11-19T14:14:20;11.70;99.90
56725;DHT22;42608;52.776;6.968;2023-11-19T14:16:45;11.70;99.90
56725;DHT22;42608;52.776;6.968;2023-11-19T14:19:11;11.60;99.90
56725;DHT22;42608;52.776;6.968;2023-11-19T14:21:36;11.60;99.90
56725;DHT22;42608;52.776;6.968;2023-11-19T14:24:02;11.60;99.90
56725;DHT22;42608;52.776;6.968;2023-11-19T14:26:28;11.60;99.90
56725;DHT22;42608;52.776;6.968;2023-11-19T14:28:55;11.50;99.90
56725;DHT22;42608;52.776;6.968;2023-11-19T14:31:20;11.50;99.90
56725;DHT22;42608;52.776;6.968;2023-11-19T14:33:49;11.50;99.90
56725;DHT22;42608;52.776;6.968;2023-11-19T14:36:14;11.40;99.90
56725;DHT22;42608;52.776;6.968;2023-11-19T14:38:41;11.40;99.90
56725;DHT22;42608;52.776;6.968;2023-11-19T14:41:06;11.40;99.90
56725;DHT22;42608;52.776;6.968;2023-11-19T14:43:32;11.40;99.90
56725;DHT22;42608;52.776;6.968;2023-11-19T14:45:58;11.30;99.90
56725;DHT22;42608;52.776;6.968;2023-11-19T14:48:24;11.30;99.90
56725;DHT22;42608;52.776;6.968;2023-11-19T14:50:49;11.30;99.90
56725;DHT22;42608;52.776;6.968;2023-11-19T14:53:15;11.30;99.90
56725;DHT22;42608;52.776;6.968;2023-11-19T14:55:41;11.30;99.90
56725;DHT22;42608;52.776;6.968;2023-11-19T14:58:06;11.30;99.90
56725;DHT22;42608;52.776;6.968;2023-11-19T15:00:35;11.30;99.90
56725;DHT22;42608;52.776;6.968;2023-11-19T15:03:01;11.20;99.90
56725;DHT22;42608;52.776;6.968;2023-11-19T15:05:27;11.20;99.90
56725;DHT22;42608;52.776;6.968;2023-11-19T15:07:54;11.20;99.90
56725;DHT22;42608;52.776;6.968;2023-11-19T15:10:21;11.20;99.90
56725;DHT22;42608;52.776;6.968;2023-11-19T15:12:46;11.20;99.90
56725;DHT22;42608;52.776;6.968;2023-11-19T15:15:12;11.20;99.90
56725;DHT22;42608;52.776;6.968;2023-11-19T15:17:41;11.20;99.90
56725;DHT22;42608;52.776;6.968;2023-11-19T15:20:07;11.20;99.90
56725;DHT22;42608;52.776;6.968;2023-11-19T15:22:32;11.20;99.90
56725;DHT22;42608;52.776;6.968;2023-11-19T15:24:58;11.20;99.90
56725;DHT22;42608;52.776;6.968;2023-11-19T15:27:24;11.20;99.90
56725;DHT22;42608;52.776;6.968;2023-11-19T15:29:49;11.20;99.90
56725;DHT22;42608;52.776;6.968;2023-11-19T15:32:15;11.20;99.90
56725;DHT22;42608;52.776;6.968;2023-11-19T15:34:41;11.20;99.90
56725;DHT22;42608;52.776;6.968;2023-11-19T15:37:07;11.10;99.90
56725;DHT22;42608;52.776;6.968;2023-11-19T15:39:33;11.10;99.90
56725;DHT22;42608;52.776;6.968;2023-11-19T15:42:01;11.10;99.90
56725;DHT22;42608;52.776;6.968;2023-11-19T15:44:27;11.10;99.90
56725;DHT22;42608;52.776;6.968;2023-11-19T15:46:55;11.10;99.90
56725;DHT22;42608;52.776;6.968;2023-11-19T15:49:21;11.10;99.90
56725;DHT22;42608;52.776;6.968;2023-11-19T15:51:46;11.10;99.90
56725;DHT22;42608;52.776;6.968;2023-11-19T15:54:12;11.10;99.90